Time;durP1;ratioP1;P1;durP2;ratioP2;P2;SDS_P1;SDS_P2;PMS_P1;PMS_P2;Temp;Humidity;BMP_temperature;BMP_pressure;BME280_temperature;BME280_humidity;BME280_pressure;Samples;Min_cycle;Max_cycle;Signal;HPM_P1;HPM_P2
2021/06/15 00:00:25;;;;;;;11.78;6.72;;;22.80;72.50;;;;;;1918217;74;21015;-52
2021/06/15 00:02:54;;;;;;;9.68;6.20;;;22.80;72.70;;;;;;1918346;75;21023;-54
2021/06/15 00:05:24;;;;;;;6.87;5.12;;;22.70;72.80;;;;;;1881711;75;21077;-54
2021/06/15 00:07:54;;;;;;;5.90;4.12;;;22.60;73.20;;;;;;1918349;75;21035;-54
2021/06/15 00:10:25;;;;;;;5.08;4.30;;;22.60;73.30;;;;;;1881624;76;21022;-54
2021/06/15 00:12:56;;;;;;;11.75;4.58;;;22.70;73.50;;;;;;1918204;75;20999;-53
2021/06/15 00:15:26;;;;;;;7.05;4.58;;;22.70;73.60;;;;;;1918269;75;21022;-54
2021/06/15 00:17:56;;;;;;;6.65;3.85;;;22.80;73.80;;;;;;1881700;76;21038;-52
2021/06/15 00:20:26;;;;;;;8.18;4.25;;;22.80;73.70;;;;;;1918316;75;21454;-53
2021/06/15 00:22:55;;;;;;;8.08;5.15;;;22.80;74.60;;;;;;1881729;76;21045;-53
2021/06/15 00:25:24;;;;;;;9.00;4.83;;;22.80;74.00;;;;;;1918228;75;21027;-54
2021/06/15 00:27:54;;;;;;;7.72;4.45;;;22.70;74.30;;;;;;1918255;75;21066;-54
2021/06/15 00:30:23;;;;;;;11.63;4.47;;;22.70;74.80;;;;;;1918261;75;21085;-52
2021/06/15 00:32:53;;;;;;;7.47;4.70;;;22.60;74.90;;;;;;1918248;75;21662;-53
2021/06/15 00:35:22;;;;;;;7.95;5.45;;;22.60;75.10;;;;;;1881643;76;21002;-53
2021/06/15 00:37:52;;;;;;;6.72;5.45;;;22.50;75.30;;;;;;1918195;73;21019;-55
2021/06/15 00:40:23;;;;;;;8.80;6.30;;;22.50;75.60;;;;;;1881600;75;21026;-54
2021/06/15 00:42:53;;;;;;;11.35;6.72;;;22.50;76.20;;;;;;1918226;75;21076;-54
2021/06/15 00:45:28;;;;;;;9.58;6.85;;;22.30;76.40;;;;;;1918322;75;21062;-54
2021/06/15 00:47:57;;;;;;;10.43;7.55;;;22.20;76.70;;;;;;1881596;75;21037;-52
2021/06/15 00:50:28;;;;;;;9.18;6.83;;;22.10;77.10;;;;;;1918199;75;21102;-53
2021/06/15 00:52:58;;;;;;;9.73;6.83;;;22.10;77.60;;;;;;1918193;75;21152;-54
2021/06/15 00:55:28;;;;;;;8.08;6.67;;;22.00;77.60;;;;;;1918289;75;21140;-54
2021/06/15 00:57:57;;;;;;;16.40;7.47;;;22.00;77.90;;;;;;1881711;76;21069;-53
2021/06/15 01:00:27;;;;;;;8.65;7.08;;;21.90;78.00;;;;;;1918207;74;21077;-53
2021/06/15 01:02:57;;;;;;;6.42;5.72;;;21.90;78.00;;;;;;1881604;76;21069;-53
2021/06/15 01:05:27;;;;;;;9.10;6.47;;;21.90;78.10;;;;;;1918313;75;21070;-54
2021/06/15 01:08:08;;;;;;;8.23;6.40;;;21.90;78.30;;;;;;1881718;76;21025;-53
2021/06/15 01:10:44;;;;;;;9.30;6.00;;;21.90;78.30;;;;;;1918315;74;21020;-54
2021/06/15 01:13:17;;;;;;;;;;;21.90;78.10;;;;;;1921036;74;21101;-53
2021/06/15 01:16:09;;;;;;;9.23;5.50;;;21.90;77.70;;;;;;1918186;74;20137;-54
2021/06/15 01:18:41;;;;;;;7.47;5.60;;;22.00;77.70;;;;;;1881679;76;21046;-53
2021/06/15 01:21:13;;;;;;;5.62;5.12;;;22.00;77.70;;;;;;1918308;74;21039;-54
2021/06/15 01:23:54;;;;;;;10.55;5.28;;;22.10;77.50;;;;;;1881697;76;21477;-53
2021/06/15 01:26:44;;;;;;;5.62;4.30;;;22.10;77.40;;;;;;1918207;75;21014;-53
2021/06/15 01:29:19;;;;;;;7.40;5.03;;;22.00;77.40;;;;;;1881800;76;21046;-54
2021/06/15 01:31:55;;;;;;;8.08;4.55;;;21.90;77.40;;;;;;1917503;74;21472;-52
2021/06/15 01:34:32;;;;;;;7.05;5.28;;;21.90;77.60;;;;;;1904956;74;21442;-52
2021/06/15 01:37:08;;;;;;;7.85;5.15;;;21.90;77.80;;;;;;1904753;74;21113;-53
2021/06/15 01:39:56;;;;;;;6.15;4.65;;;21.90;78.00;;;;;;1905029;75;21039;-52
2021/06/15 01:42:41;;;;;;;6.10;4.25;;;22.00;78.20;;;;;;1904971;74;21096;-53
2021/06/15 01:45:19;;;;;;;7.70;4.47;;;22.10;78.70;;;;;;1905116;74;21019;-52
2021/06/15 01:48:10;;;;;;;8.03;4.65;;;22.20;78.00;;;;;;1905034;75;21028;-53
2021/06/15 01:50:43;;;;;;;5.92;4.47;;;22.20;77.90;;;;;;1904809;74;21039;-54
2021/06/15 01:53:17;;;;;;;5.65;4.35;;;22.20;77.80;;;;;;1904883;74;21046;-54
2021/06/15 01:55:53;;;;;;;6.12;4.53;;;22.30;77.60;;;;;;1905044;75;21071;-54
2021/06/15 01:58:25;;;;;;;7.37;4.65;;;22.20;77.40;;;;;;1904971;74;21018;-53
2021/06/15 02:00:57;;;;;;;5.10;3.85;;;22.20;77.40;;;;;;1905184;74;21414;-54
2021/06/15 02:03:29;;;;;;;6.53;4.90;;;22.20;77.70;;;;;;1905143;75;21012;-52
2021/06/15 02:06:00;;;;;;;7.25;4.62;;;22.30;77.80;;;;;;1905205;74;21101;-53
2021/06/15 02:08:32;;;;;;;9.60;4.87;;;22.30;77.90;;;;;;1905262;75;20996;-53
2021/06/15 02:11:03;;;;;;;8.93;5.03;;;22.30;77.90;;;;;;1904919;74;21457;-53
2021/06/15 02:13:50;;;;;;;8.88;4.97;;;22.30;77.90;;;;;;1903361;74;21187;-53
2021/06/15 02:16:40;;;;;;;8.25;5.08;;;22.30;77.70;;;;;;1802399;79;21133;-53
2021/06/15 02:19:22;;;;;;;5.72;5.12;;;22.30;77.80;;;;;;1801424;79;21077;-52
2021/06/15 02:21:55;;;;;;;8.20;5.20;;;22.30;78.00;;;;;;1849348;74;21515;-51
2021/06/15 02:24:31;;;;;;;6.22;5.05;;;22.30;78.00;;;;;;1893216;75;20996;-53
2021/06/15 02:27:03;;;;;;;7.35;4.67;;;22.30;78.10;;;;;;1868534;77;21141;-51
2021/06/15 02:29:33;;;;;;;6.30;4.90;;;22.30;78.10;;;;;;1892630;75;21001;-52
2021/06/15 02:32:04;;;;;;;11.88;5.35;;;22.30;78.00;;;;;;1905193;75;21003;-52
2021/06/15 02:34:37;;;;;;;7.08;4.87;;;22.30;78.00;;;;;;1918098;75;21027;-53
2021/06/15 02:37:09;;;;;;;5.95;4.60;;;22.30;78.10;;;;;;1918407;74;21039;-50
2021/06/15 02:39:41;;;;;;;7.28;4.40;;;22.30;78.20;;;;;;1881749;76;21068;-52
2021/06/15 02:42:12;;;;;;;8.23;4.55;;;22.30;78.20;;;;;;1918432;75;21077;-51
2021/06/15 02:44:45;;;;;;;6.60;4.75;;;22.30;78.20;;;;;;1918404;75;21043;-52
2021/06/15 02:47:16;;;;;;;8.08;4.95;;;22.30;78.30;;;;;;1918301;74;21071;-52
2021/06/15 02:49:51;;;;;;;7.12;5.42;;;22.30;78.30;;;;;;1881803;76;21105;-50
2021/06/15 02:52:21;;;;;;;;;;;22.20;78.30;;;;;;1921341;73;21046;-52
2021/06/15 02:54:56;;;;;;;24.67;13.83;;;22.20;78.70;;;;;;1917780;74;20113;-52
2021/06/15 02:57:27;;;;;;;16.45;11.38;;;22.10;78.30;;;;;;1918371;75;21043;-53
2021/06/15 02:59:58;;;;;;;14.43;8.23;;;22.10;78.60;;;;;;1918429;75;21046;-53
2021/06/15 03:02:28;;;;;;;23.92;16.37;;;22.10;78.90;;;;;;1918497;75;21109;-53
2021/06/15 03:04:58;;;;;;;18.80;11.57;;;22.10;79.20;;;;;;1918433;75;21112;-52
2021/06/15 03:07:29;;;;;;;9.23;6.53;;;22.10;79.10;;;;;;1918436;74;21117;-51
2021/06/15 03:10:00;;;;;;;8.60;6.65;;;22.00;79.20;;;;;;1918479;75;21104;-48
2021/06/15 03:12:32;;;;;;;7.03;5.08;;;22.00;79.30;;;;;;1918145;74;21585;-51
2021/06/15 03:15:05;;;;;;;6.22;4.97;;;21.90;80.00;;;;;;1918443;74;21457;-52
2021/06/15 03:17:37;;;;;;;9.48;5.78;;;21.80;79.40;;;;;;1918341;75;21015;-52
2021/06/15 03:20:11;;;;;;;6.80;5.60;;;21.70;79.60;;;;;;1918298;75;21481;-53
2021/06/15 03:22:50;;;;;;;8.73;5.67;;;21.70;79.80;;;;;;1879779;76;21045;-51
2021/06/15 03:25:23;;;;;;;27.15;12.85;;;21.80;80.00;;;;;;1918246;75;21469;-52
2021/06/15 03:28:05;;;;;;;14.43;9.20;;;21.80;79.90;;;;;;1918317;75;21118;-52
2021/06/15 03:30:36;;;;;;;12.23;7.40;;;21.80;80.00;;;;;;1918358;75;21092;-51
2021/06/15 03:33:13;;;;;;;9.55;6.50;;;21.80;80.00;;;;;;1916565;75;21113;-53
2021/06/15 03:35:45;;;;;;;13.72;8.10;;;21.90;80.00;;;;;;1905716;75;21011;-53
2021/06/15 03:38:16;;;;;;;14.80;8.38;;;21.90;79.90;;;;;;1905654;75;21046;-52
2021/06/15 03:40:53;;;;;;;10.93;5.97;;;22.00;79.80;;;;;;1905733;75;21023;-53
2021/06/15 03:43:22;;;;;;;6.00;4.75;;;22.00;79.70;;;;;;1905683;75;21027;-53
2021/06/15 03:46:00;;;;;;;7.00;4.80;;;22.00;79.80;;;;;;1869345;77;21045;-53
2021/06/15 03:48:30;;;;;;;7.87;5.50;;;21.90;79.80;;;;;;1853465;77;21570;-52
2021/06/15 03:51:01;;;;;;;6.28;4.85;;;22.00;80.00;;;;;;1853565;77;21035;-51
2021/06/15 03:53:32;;;;;;;5.47;4.92;;;22.00;79.90;;;;;;1853653;77;21020;-51
2021/06/15 03:56:03;;;;;;;18.17;5.60;;;22.10;79.90;;;;;;1853617;77;21032;-52
2021/06/15 03:58:33;;;;;;;6.17;5.58;;;22.20;79.80;;;;;;1853589;77;21490;-52
2021/06/15 04:01:05;;;;;;;8.95;4.22;;;22.20;79.10;;;;;;1853714;77;21118;-53
2021/06/15 04:03:37;;;;;;;6.42;4.55;;;22.20;79.30;;;;;;1853584;77;21056;-53
2021/06/15 04:06:07;;;;;;;7.37;4.10;;;22.20;79.00;;;;;;1853607;77;21036;-52
2021/06/15 04:08:38;;;;;;;7.12;3.80;;;22.20;79.20;;;;;;1853621;77;21090;-52
2021/06/15 04:11:09;;;;;;;5.83;4.12;;;22.20;79.10;;;;;;1853580;77;21126;-51
2021/06/15 04:13:40;;;;;;;8.93;3.92;;;22.20;79.20;;;;;;1853504;77;21048;-52
2021/06/15 04:16:13;;;;;;;5.55;4.12;;;22.20;79.10;;;;;;1853618;77;21056;-53
2021/06/15 04:18:44;;;;;;;15.38;7.47;;;22.30;79.20;;;;;;1853485;77;21098;-53
2021/06/15 04:21:15;;;;;;;8.75;4.50;;;22.30;79.20;;;;;;1853576;77;21035;-53
2021/06/15 04:23:47;;;;;;;13.05;6.72;;;22.40;78.90;;;;;;1853422;77;21096;-53
2021/06/15 04:26:16;;;;;;;4.80;3.55;;;22.50;78.70;;;;;;1852458;77;21012;-52
2021/06/15 04:28:45;;;;;;;7.60;5.37;;;22.60;78.60;;;;;;1853453;77;21032;-53
2021/06/15 04:31:18;;;;;;;11.38;4.10;;;22.60;78.30;;;;;;1853514;77;21134;-53
2021/06/15 04:33:51;;;;;;;58.50;26.87;;;22.70;78.30;;;;;;1853412;77;21083;-53
2021/06/15 04:36:21;;;;;;;52.13;25.82;;;22.80;78.10;;;;;;1853471;77;21153;-54
2021/06/15 04:39:09;;;;;;;25.15;10.68;;;22.80;77.90;;;;;;1853414;77;21093;-52
2021/06/15 04:42:00;;;;;;;18.98;8.70;;;22.80;77.80;;;;;;1853450;77;21056;-54
2021/06/15 04:44:42;;;;;;;11.15;6.08;;;22.80;77.60;;;;;;1853650;77;21012;-53
2021/06/15 04:47:14;;;;;;;10.82;5.50;;;22.90;77.80;;;;;;1852526;77;21035;-53
2021/06/15 04:49:49;;;;;;;11.95;6.50;;;22.90;77.80;;;;;;1853590;77;21020;-54
2021/06/15 04:52:21;;;;;;;8.38;5.80;;;23.00;77.70;;;;;;1853128;77;21560;-54
2021/06/15 04:54:51;;;;;;;7.90;5.58;;;23.10;77.60;;;;;;1853604;77;21036;-53
2021/06/15 04:57:32;;;;;;;5.95;5.25;;;23.20;77.50;;;;;;1853491;77;21098;-54
2021/06/15 05:00:02;;;;;;;12.25;5.05;;;23.20;77.40;;;;;;1853088;77;21090;-54
2021/06/15 05:02:32;;;;;;;10.95;6.58;;;23.20;77.10;;;;;;1853311;77;21121;-53
2021/06/15 05:05:01;;;;;;;11.75;6.90;;;23.30;76.80;;;;;;1853373;77;21035;-53
2021/06/15 05:07:31;;;;;;;8.38;5.42;;;23.30;76.70;;;;;;1853427;77;21109;-53
2021/06/15 05:10:03;;;;;;;9.65;5.33;;;23.40;76.50;;;;;;1853385;77;21040;-53
2021/06/15 05:12:38;;;;;;;7.17;5.45;;;23.50;76.20;;;;;;1853402;77;21101;-54
2021/06/15 05:15:10;;;;;;;9.93;5.53;;;23.60;75.90;;;;;;1853614;77;21485;-53
2021/06/15 05:17:45;;;;;;;9.60;5.55;;;23.70;75.50;;;;;;1853462;77;21103;-52
2021/06/15 05:20:15;;;;;;;6.87;4.90;;;23.70;75.20;;;;;;1853407;77;21012;-53
2021/06/15 05:23:02;;;;;;;9.30;7.45;;;23.80;75.10;;;;;;1853347;77;21083;-53
2021/06/15 05:25:32;;;;;;;17.23;9.98;;;23.90;74.90;;;;;;1853434;77;21518;-51
2021/06/15 05:28:01;;;;;;;14.78;6.95;;;24.00;75.30;;;;;;1853507;77;21028;-52
2021/06/15 05:30:31;;;;;;;7.42;5.50;;;24.00;74.60;;;;;;1853474;77;21110;-53
2021/06/15 05:33:00;;;;;;;8.90;5.70;;;24.20;74.30;;;;;;1853627;77;21470;-54
2021/06/15 05:35:31;;;;;;;7.87;5.33;;;24.20;73.80;;;;;;1854828;77;21545;-52
2021/06/15 05:38:01;;;;;;;7.97;5.08;;;24.30;73.80;;;;;;1904879;75;21154;-53
2021/06/15 05:40:30;;;;;;;11.88;5.35;;;24.30;73.60;;;;;;1904718;75;21019;-53
2021/06/15 05:43:00;;;;;;;8.35;4.60;;;24.40;73.40;;;;;;1904758;75;21028;-52
2021/06/15 05:45:29;;;;;;;8.95;4.95;;;24.50;73.00;;;;;;1904726;75;21093;-54
2021/06/15 05:47:59;;;;;;;7.30;4.58;;;24.60;72.70;;;;;;1904812;75;21036;-52
2021/06/15 05:50:29;;;;;;;8.65;4.95;;;24.70;72.00;;;;;;1904766;75;21059;-53
2021/06/15 05:52:59;;;;;;;9.18;4.80;;;24.80;71.90;;;;;;1904800;75;21067;-53
2021/06/15 05:55:28;;;;;;;7.72;4.47;;;24.90;71.50;;;;;;1904787;75;21103;-53
2021/06/15 05:57:57;;;;;;;8.43;4.90;;;25.10;71.30;;;;;;1904970;74;21081;-53
2021/06/15 06:00:27;;;;;;;6.75;4.28;;;25.20;70.90;;;;;;1904803;75;21027;-52
2021/06/15 06:02:56;;;;;;;11.10;4.70;;;25.40;70.00;;;;;;1904818;74;21077;-54
2021/06/15 06:08:15;;;;;;;4.78;3.55;;;25.80;69.20;;;;;;1904904;75;21035;-54
2021/06/15 06:10:46;;;;;;;8.30;3.85;;;26.00;68.20;;;;;;1904928;75;21477;-52
2021/06/15 06:13:15;;;;;;;9.35;4.00;;;26.10;67.30;;;;;;1904892;75;21077;-52
2021/06/15 06:15:44;;;;;;;7.40;3.98;;;26.20;67.00;;;;;;1905033;75;21015;-51
2021/06/15 06:18:14;;;;;;;5.47;4.20;;;26.40;66.90;;;;;;1905169;75;21458;-52
2021/06/15 06:20:43;;;;;;;8.48;3.65;;;26.50;66.70;;;;;;1905122;75;21023;-53
2021/06/15 06:23:13;;;;;;;6.00;3.55;;;26.70;65.60;;;;;;1905056;75;21020;-52
2021/06/15 06:25:42;;;;;;;5.47;3.52;;;26.80;65.20;;;;;;1904993;74;21085;-53
2021/06/15 06:28:11;;;;;;;5.78;3.87;;;26.90;64.50;;;;;;1905161;74;20992;-54
2021/06/15 06:30:41;;;;;;;3.80;3.15;;;27.00;63.90;;;;;;1905030;74;21015;-52
2021/06/15 06:33:10;;;;;;;6.70;3.37;;;27.10;63.50;;;;;;1905150;75;21020;-53
2021/06/15 06:35:40;;;;;;;6.00;3.67;;;27.20;63.30;;;;;;1905365;75;21051;-52
2021/06/15 06:38:09;;;;;;;7.35;3.40;;;27.30;62.40;;;;;;1869192;77;21098;-53
2021/06/15 06:40:39;;;;;;;4.55;3.60;;;27.30;62.20;;;;;;1853433;77;21048;-53
2021/06/15 06:43:09;;;;;;;3.58;2.87;;;27.40;61.70;;;;;;1853501;77;21365;-53
2021/06/15 06:45:40;;;;;;;5.17;2.98;;;27.40;61.10;;;;;;1853659;77;21145;-53
2021/06/15 06:48:10;;;;;;;6.75;2.92;;;27.40;60.70;;;;;;1853666;77;21051;-53
2021/06/15 06:50:40;;;;;;;10.63;3.98;;;27.50;60.20;;;;;;1853677;77;21107;-53
2021/06/15 06:53:09;;;;;;;7.15;3.30;;;27.50;60.10;;;;;;1853603;77;21016;-53
2021/06/15 06:55:39;;;;;;;6.92;3.52;;;27.50;59.70;;;;;;1853495;77;21144;-52
2021/06/15 06:58:08;;;;;;;10.25;4.50;;;27.40;59.60;;;;;;1853580;77;21089;-53
2021/06/15 07:00:38;;;;;;;7.92;4.15;;;27.50;59.30;;;;;;1853422;77;21113;-52
2021/06/15 07:03:07;;;;;;;5.85;3.42;;;27.50;59.70;;;;;;1853409;77;21032;-52
2021/06/15 07:05:36;;;;;;;8.68;4.10;;;27.50;59.50;;;;;;1853363;77;21102;-51
2021/06/15 07:08:07;;;;;;;8.35;3.92;;;27.50;59.40;;;;;;1853576;77;21031;-53
2021/06/15 07:10:36;;;;;;;8.20;4.08;;;27.50;59.40;;;;;;1853473;77;21201;-49
2021/06/15 07:13:06;;;;;;;7.85;3.70;;;27.50;59.20;;;;;;1853507;77;21012;-50
2021/06/15 07:15:35;;;;;;;11.33;3.70;;;27.60;59.30;;;;;;1853427;77;21110;-50
2021/06/15 07:18:05;;;;;;;5.00;2.85;;;27.60;58.80;;;;;;1853522;77;21051;-55
2021/06/15 07:20:35;;;;;;;4.72;3.02;;;27.70;58.80;;;;;;1853416;77;21036;-56
2021/06/15 07:23:04;;;;;;;4.40;3.20;;;27.90;59.00;;;;;;1853505;77;21032;-56
2021/06/15 07:25:33;;;;;;;6.80;3.62;;;28.00;58.40;;;;;;1853427;77;21106;-56
2021/06/15 07:28:03;;;;;;;9.25;3.70;;;28.00;58.10;;;;;;1853592;77;21161;-56
2021/06/15 07:30:32;;;;;;;9.98;3.67;;;28.10;57.80;;;;;;1853561;77;21310;-56
2021/06/15 07:33:02;;;;;;;12.20;4.20;;;28.20;57.80;;;;;;1853547;77;21016;-56
2021/06/15 07:35:31;;;;;;;5.70;3.17;;;28.20;57.40;;;;;;1853905;77;21134;-56
2021/06/15 07:38:00;;;;;;;4.00;3.60;;;28.20;57.80;;;;;;1904873;75;21023;-56
2021/06/15 07:40:30;;;;;;;4.90;3.27;;;28.20;57.80;;;;;;1904811;74;21110;-56
2021/06/15 07:43:00;;;;;;;3.92;2.83;;;28.10;57.00;;;;;;1904953;74;21591;-56
2021/06/15 07:45:32;;;;;;;11.28;6.72;;;28.00;56.90;;;;;;1904829;75;21140;-56
2021/06/15 07:48:01;;;;;;;6.33;3.42;;;28.10;57.40;;;;;;1904907;75;21512;-56
2021/06/15 07:50:30;;;;;;;3.42;2.67;;;28.10;57.30;;;;;;1904729;74;21094;-56
2021/06/15 07:53:00;;;;;;;5.53;3.15;;;28.20;57.10;;;;;;1904765;75;21062;-56
2021/06/15 07:55:29;;;;;;;4.50;3.10;;;28.40;57.00;;;;;;1904813;75;21054;-56
2021/06/15 07:57:58;;;;;;;4.60;3.80;;;28.50;57.60;;;;;;1904963;75;21081;-56
2021/06/15 08:00:27;;;;;;;5.00;3.25;;;28.60;57.90;;;;;;1904771;75;21089;-56
2021/06/15 08:02:57;;;;;;;7.22;3.80;;;28.60;58.10;;;;;;1904960;74;21186;-56
2021/06/15 08:05:26;;;;;;;8.48;3.83;;;28.50;58.30;;;;;;1904840;74;21077;-56
2021/06/15 08:07:56;;;;;;;8.03;3.85;;;28.40;58.30;;;;;;1904789;74;21019;-56
2021/06/15 08:10:25;;;;;;;5.70;3.83;;;28.40;58.50;;;;;;1904835;75;21093;-56
2021/06/15 08:12:55;;;;;;;3.80;2.80;;;28.20;59.40;;;;;;1904933;75;21160;-56
2021/06/15 08:15:25;;;;;;;6.42;3.45;;;28.20;58.70;;;;;;1904895;75;21043;-56
2021/06/15 08:17:54;;;;;;;5.53;2.85;;;28.10;58.50;;;;;;1904872;74;21091;-55
2021/06/15 08:20:24;;;;;;;7.05;3.50;;;28.00;57.30;;;;;;1904772;75;21023;-56
2021/06/15 08:22:53;;;;;;;5.97;3.58;;;28.00;56.90;;;;;;1904942;75;21032;-56
2021/06/15 08:25:23;;;;;;;3.05;2.47;;;28.00;56.60;;;;;;1904856;75;21023;-55
2021/06/15 08:27:52;;;;;;;6.97;4.30;;;28.10;56.40;;;;;;1904829;75;21048;-56
2021/06/15 08:30:22;;;;;;;5.42;3.83;;;28.20;56.30;;;;;;1904827;75;21109;-57
2021/06/15 08:32:52;;;;;;;9.28;3.67;;;28.30;56.30;;;;;;1904878;74;21093;-57
2021/06/15 08:35:22;;;;;;;6.97;5.25;;;28.40;56.00;;;;;;1904829;75;21039;-56
2021/06/15 08:37:52;;;;;;;5.92;2.75;;;28.50;55.60;;;;;;1916870;74;21054;-56
2021/06/15 08:40:21;;;;;;;20.32;12.07;;;28.50;55.20;;;;;;1881340;76;21084;-56
2021/06/15 08:42:51;;;;;;;6.37;3.95;;;28.40;55.10;;;;;;1917979;74;21026;-56
2021/06/15 08:45:21;;;;;;;3.37;2.92;;;28.40;55.40;;;;;;1881455;76;21022;-56
2021/06/15 08:47:52;;;;;;;10.43;4.03;;;28.40;55.30;;;;;;1918071;75;21533;-56
2021/06/15 08:50:24;;;;;;;8.50;3.70;;;28.30;55.60;;;;;;1918194;74;21018;-56
2021/06/15 08:52:54;;;;;;;9.63;6.87;;;28.20;55.80;;;;;;1918238;74;21108;-56
2021/06/15 08:55:26;;;;;;;11.97;4.50;;;28.20;56.20;;;;;;1881641;76;21050;-56
2021/06/15 08:58:13;;;;;;;8.88;3.27;;;28.10;56.30;;;;;;1918040;74;21039;-56
2021/06/15 09:00:43;;;;;;;3.25;2.80;;;28.10;56.20;;;;;;1918179;75;21093;-56
2021/06/15 09:03:15;;;;;;;6.70;3.30;;;28.10;56.40;;;;;;1918223;75;21105;-56
2021/06/15 09:05:45;;;;;;;3.10;2.80;;;28.10;56.30;;;;;;1881594;76;21034;-56
2021/06/15 09:08:15;;;;;;;4.67;2.83;;;28.10;56.10;;;;;;1918206;73;21088;-56
2021/06/15 09:10:47;;;;;;;6.78;2.87;;;28.00;56.00;;;;;;1918047;75;21085;-56
2021/06/15 09:13:36;;;;;;;4.85;3.05;;;28.00;56.00;;;;;;1881571;76;21092;-56
2021/06/15 09:16:20;;;;;;;3.42;3.08;;;28.00;56.30;;;;;;1918164;74;21023;-56
2021/06/15 09:18:50;;;;;;;9.43;3.77;;;28.00;56.70;;;;;;1905326;75;21588;-56
2021/06/15 09:21:35;;;;;;;4.22;3.30;;;28.00;56.50;;;;;;1881462;76;21046;-56
2021/06/15 09:24:07;;;;;;;4.83;2.98;;;28.00;56.20;;;;;;1918080;75;21096;-56
2021/06/15 09:27:07;;;;;;;4.37;2.90;;;28.00;55.90;;;;;;1918236;75;21527;-56
2021/06/15 09:29:42;;;;;;;8.33;3.25;;;28.00;56.20;;;;;;1918145;75;20983;-56
2021/06/15 09:32:16;;;;;;;5.00;2.83;;;28.00;56.40;;;;;;1918163;75;21035;-56
2021/06/15 09:34:50;;;;;;;6.93;3.60;;;28.10;56.40;;;;;;1881867;76;21006;-56
2021/06/15 09:37:28;;;;;;;31.30;25.80;;;28.20;56.30;;;;;;1912159;74;21113;-56
2021/06/15 09:39:57;;;;;;;7.05;3.27;;;28.20;56.10;;;;;;1904126;74;20996;-56
2021/06/15 09:42:27;;;;;;;7.80;4.20;;;28.30;56.10;;;;;;1904827;75;21023;-56
2021/06/15 09:44:56;;;;;;;4.05;3.60;;;28.30;56.10;;;;;;1904762;75;21023;-56
2021/06/15 09:47:26;;;;;;;8.18;3.25;;;28.30;55.90;;;;;;1904771;75;21015;-56
2021/06/15 09:49:57;;;;;;;7.45;3.12;;;28.30;56.20;;;;;;1904988;75;21475;-56
2021/06/15 09:52:27;;;;;;;4.20;3.10;;;28.30;55.70;;;;;;1904922;75;20996;-56
2021/06/15 09:55:02;;;;;;;6.08;2.95;;;28.20;55.90;;;;;;1905017;75;21020;-56
2021/06/15 09:57:41;;;;;;;5.12;2.95;;;28.20;55.60;;;;;;1905036;75;21031;-56
2021/06/15 10:00:23;;;;;;;4.95;2.75;;;28.10;55.50;;;;;;1904926;75;21466;-56
2021/06/15 10:02:57;;;;;;;8.00;3.67;;;28.10;54.70;;;;;;1905075;75;21085;-56
2021/06/15 10:05:35;;;;;;;7.53;4.15;;;28.00;55.00;;;;;;1905136;74;21027;-56
2021/06/15 10:08:15;;;;;;;6.62;3.02;;;28.00;55.40;;;;;;1904987;75;21478;-56
2021/06/15 10:10:44;;;;;;;6.55;3.17;;;28.00;55.30;;;;;;1903846;74;21071;-56
2021/06/15 10:13:14;;;;;;;9.15;3.50;;;28.00;55.60;;;;;;1904997;75;21096;-56
2021/06/15 10:15:43;;;;;;;11.73;3.92;;;28.10;55.20;;;;;;1904918;75;21058;-56
2021/06/15 10:18:13;;;;;;;7.45;3.22;;;28.20;55.00;;;;;;1905042;75;21059;-56
2021/06/15 10:20:44;;;;;;;5.90;3.25;;;28.40;54.90;;;;;;1904678;74;21056;-56
2021/06/15 10:23:13;;;;;;;5.70;2.83;;;28.60;52.90;;;;;;1904845;75;20999;-56
2021/06/15 10:25:44;;;;;;;9.65;4.45;;;28.80;53.00;;;;;;1904973;74;21069;-56
2021/06/15 10:28:15;;;;;;;6.40;3.10;;;28.90;53.30;;;;;;1905067;75;21031;-56
2021/06/15 10:30:46;;;;;;;6.60;2.85;;;28.90;53.50;;;;;;1905007;74;21097;-56
2021/06/15 10:33:17;;;;;;;8.75;4.00;;;28.90;53.80;;;;;;1905020;75;20996;-56
2021/06/15 10:35:49;;;;;;;8.63;3.02;;;28.80;54.50;;;;;;1905001;74;21003;-56
2021/06/15 10:38:33;;;;;;;7.62;3.15;;;28.80;55.00;;;;;;1912718;75;21116;-56
2021/06/15 10:41:03;;;;;;;4.47;2.72;;;28.80;55.20;;;;;;1881107;76;21026;-57
2021/06/15 10:43:37;;;;;;;9.73;3.83;;;28.90;54.80;;;;;;1918235;75;21011;-57
2021/06/15 10:46:19;;;;;;;6.95;3.47;;;29.10;54.50;;;;;;1917024;75;21015;-57
2021/06/15 10:48:48;;;;;;;5.72;3.33;;;29.20;54.50;;;;;;1918262;74;21068;-56
2021/06/15 10:51:30;;;;;;;8.40;3.77;;;29.20;54.00;;;;;;1917648;74;21039;-56
2021/06/15 10:54:04;;;;;;;6.33;3.75;;;29.10;53.90;;;;;;1918071;74;21104;-56
2021/06/15 10:56:37;;;;;;;5.60;3.35;;;29.10;54.20;;;;;;1881908;75;21185;-56
2021/06/15 10:59:07;;;;;;;6.30;3.67;;;29.20;54.20;;;;;;1918304;73;21038;-56
2021/06/15 11:01:42;;;;;;;7.00;3.40;;;29.20;54.10;;;;;;1881616;75;21015;-56
2021/06/15 11:04:15;;;;;;;6.75;3.37;;;29.20;54.50;;;;;;1918134;74;21508;-56
2021/06/15 11:06:47;;;;;;;7.12;3.20;;;29.30;54.50;;;;;;1881697;76;21080;-56
2021/06/15 11:09:19;;;;;;;6.22;3.58;;;29.30;54.20;;;;;;1918265;75;21039;-57
2021/06/15 11:12:04;;;;;;;6.30;4.10;;;29.30;54.20;;;;;;1918293;75;21019;-57
2021/06/15 11:14:34;;;;;;;7.60;3.02;;;29.30;54.40;;;;;;1918313;75;21461;-56
2021/06/15 11:17:04;;;;;;;4.10;3.40;;;29.30;54.30;;;;;;1881569;75;21020;-56
2021/06/15 11:19:36;;;;;;;7.90;3.85;;;29.20;54.50;;;;;;1918135;74;21027;-56
2021/06/15 11:22:12;;;;;;;15.40;4.15;;;29.20;54.60;;;;;;1918306;73;21506;-56
2021/06/15 11:24:48;;;;;;;4.80;3.08;;;29.20;54.60;;;;;;1918193;75;21136;-56
2021/06/15 11:27:26;;;;;;;8.25;3.30;;;29.20;54.30;;;;;;1881565;76;21018;-57
2021/06/15 11:30:00;;;;;;;11.38;4.37;;;29.30;54.30;;;;;;1918166;74;21065;-57
2021/06/15 11:32:33;;;;;;;9.25;3.95;;;29.20;54.40;;;;;;1915353;73;21021;-57
2021/06/15 11:35:04;;;;;;;7.40;4.33;;;29.30;54.50;;;;;;1881568;76;21069;-57
2021/06/15 11:37:39;;;;;;;6.60;2.95;;;29.30;54.40;;;;;;1918092;74;21019;-56
2021/06/15 11:40:40;;;;;;;11.63;3.92;;;29.40;54.50;;;;;;1918167;73;21038;-57
2021/06/15 11:43:12;;;;;;;5.75;2.83;;;29.50;54.30;;;;;;1918204;75;20987;-56
2021/06/15 11:45:43;;;;;;;6.10;3.25;;;29.60;53.80;;;;;;1918285;74;21461;-56
2021/06/15 11:48:33;;;;;;;6.25;3.45;;;29.70;53.60;;;;;;1894988;75;21438;-57
2021/06/15 11:51:06;;;;;;;8.25;3.58;;;29.70;53.50;;;;;;1881499;76;21137;-57
2021/06/15 11:53:40;;;;;;;4.92;3.40;;;29.70;53.50;;;;;;1918268;75;21188;-57
2021/06/15 11:56:11;;;;;;;17.90;4.20;;;29.70;53.00;;;;;;1918327;75;20998;-56
2021/06/15 11:58:54;;;;;;;6.97;2.87;;;29.70;52.90;;;;;;1918168;73;21026;-57
2021/06/15 12:01:17;;;;;;;7.72;3.25;;;29.70;52.80;;;;;;1879771;75;21046;-57
2021/06/15 12:03:49;;;;;;;3.67;2.92;;;29.60;53.20;;;;;;1918262;75;21085;-57
2021/06/15 12:06:20;;;;;;;6.83;2.92;;;29.60;53.00;;;;;;1918323;74;21046;-57
2021/06/15 12:08:51;;;;;;;5.95;3.00;;;29.60;53.00;;;;;;1881602;76;21054;-56
2021/06/15 12:11:22;;;;;;;7.03;2.80;;;29.60;52.90;;;;;;1918396;75;21076;-57
2021/06/15 12:13:52;;;;;;;5.42;3.30;;;29.70;52.80;;;;;;1881578;76;21030;-56
2021/06/15 12:16:26;;;;;;;4.80;3.08;;;29.70;52.90;;;;;;1918274;75;21043;-57
2021/06/15 12:18:57;;;;;;;6.55;3.77;;;29.80;52.80;;;;;;1881593;76;21204;-57
2021/06/15 12:21:28;;;;;;;7.53;3.58;;;29.80;52.50;;;;;;1918182;75;21019;-56
2021/06/15 12:24:06;;;;;;;7.47;3.12;;;29.90;52.10;;;;;;1918268;75;21043;-56
2021/06/15 12:26:45;;;;;;;5.65;3.17;;;29.80;51.80;;;;;;1881668;75;21202;-56
2021/06/15 12:29:17;;;;;;;6.62;3.40;;;29.90;51.70;;;;;;1918033;74;21070;-57
2021/06/15 12:31:49;;;;;;;5.03;3.20;;;29.80;52.00;;;;;;1881970;76;21083;-56
2021/06/15 12:34:20;;;;;;;4.08;2.40;;;29.90;51.60;;;;;;1918281;75;21449;-57
2021/06/15 12:36:59;;;;;;;8.58;3.20;;;29.90;51.80;;;;;;1881603;76;21087;-56
2021/06/15 12:39:31;;;;;;;4.92;2.85;;;30.00;51.40;;;;;;1917981;74;21470;-56
2021/06/15 12:42:02;;;;;;;6.00;3.30;;;30.00;51.40;;;;;;1881576;76;21100;-56
2021/06/15 12:44:34;;;;;;;10.38;2.80;;;29.90;51.40;;;;;;1918235;74;21015;-56
2021/06/15 12:47:06;;;;;;;8.88;3.22;;;29.70;51.50;;;;;;1918171;74;21105;-56
2021/06/15 12:49:36;;;;;;;9.30;3.17;;;29.70;51.90;;;;;;1895622;75;21054;-56
2021/06/15 12:52:11;;;;;;;2.87;2.40;;;29.70;52.10;;;;;;1918172;75;20999;-56
2021/06/15 12:54:46;;;;;;;6.08;3.05;;;29.70;52.30;;;;;;1881596;75;21093;-57
2021/06/15 12:57:21;;;;;;;4.08;2.52;;;29.70;52.30;;;;;;1918349;75;21035;-56
2021/06/15 12:59:59;;;;;;;;;;;29.70;52.10;;;;;;1884342;76;21091;-57
2021/06/15 13:02:30;;;;;;;12.15;9.23;;;29.70;51.80;;;;;;1863113;77;20106;-56
2021/06/15 13:05:00;;;;;;;5.47;2.85;;;29.70;52.40;;;;;;1918082;74;21465;-56
2021/06/15 13:07:34;;;;;;;3.77;2.60;;;29.70;52.30;;;;;;1881470;75;21088;-56
2021/06/15 13:10:18;;;;;;;4.50;2.83;;;29.80;52.00;;;;;;1918005;75;21497;-57
2021/06/15 13:12:50;;;;;;;3.72;2.58;;;29.90;52.00;;;;;;1881648;76;21030;-57
2021/06/15 13:15:22;;;;;;;4.83;3.80;;;29.90;52.00;;;;;;1918120;74;21042;-56